Time;durP1;ratioP1;P1;durP2;ratioP2;P2;SDS_P1;SDS_P2;PMS_P1;PMS_P2;Temp;Humidity;BMP_temperature;BMP_pressure;BME280_temperature;BME280_humidity;BME280_pressure;Samples;Min_cycle;Max_cycle;Signal;HPM_P1;HPM_P2
2023/10/11 00:01:37;;;;;;;;;;;;;;;;;;4990685;28;89823;-67
2023/10/11 00:04:03;;;;;;;;;;;;;;;;;;4987946;28;89545;-67
2023/10/11 00:06:28;;;;;;;;;;;;;;;;;;4986987;28;90239;-66
2023/10/11 00:08:54;;;;;;;;;;;;;;;;;;4988563;28;89055;-66
2023/10/11 00:11:24;;;;;;;;;;;;;;;;;;4987575;28;90256;-67
2023/10/11 00:13:49;;;;;;;;;;;;;;;;;;4987657;28;90362;-66
2023/10/11 00:16:17;;;;;;;;;;;;;;;;;;4987796;28;89554;-66
2023/10/11 00:18:43;;;;;;;;;;;;;;;;;;4987665;28;89591;-67
2023/10/11 00:21:17;;;;;;;;;;;;;;;;;;4987725;28;89525;-66
2023/10/11 00:23:43;;;;;;;;;;;;;;;;;;4991162;28;89659;-66
2023/10/11 00:26:08;;;;;;;;;;;;;;;;;;4988246;28;89716;-67
2023/10/11 00:28:35;;;;;;;;;;;;;;;;;;4988077;28;90155;-67
2023/10/11 00:31:01;;;;;;;;;;;;;;;;;;5004968;28;90434;-66
2023/10/11 00:33:27;;;;;;;;;;;;;;;;;;4993128;28;90044;-66
2023/10/11 00:35:54;;;;;;;;;;;;;;;;;;4988293;28;89820;-66
2023/10/11 00:38:21;;;;;;;;;;;;;;;;;;4988105;28;90842;-66
2023/10/11 00:40:49;;;;;;;;;;;;;;;;;;4988285;28;89811;-66
2023/10/11 00:43:19;;;;;;;;;;;;;;;;;;4987426;28;89355;-66
2023/10/11 00:45:44;;;;;;;;;;;;;;;;;;5009981;28;90923;-67
2023/10/11 00:48:15;;;;;;;;;;;;;;;;;;4994039;28;89759;-66
2023/10/11 00:50:40;;;;;;;;;;;;;;;;;;4986903;28;88990;-66
2023/10/11 00:53:09;;;;;;;;;;;;;;;;;;4993677;28;90844;-66
2023/10/11 00:55:34;;;;;;;;;;;;;;;;;;4987147;28;89144;-66
2023/10/11 00:57:59;;;;;;;;;;;;;;;;;;4987354;28;89519;-67
2023/10/11 01:00:25;;;;;;;;;;;;;;;;;;4987833;28;89197;-66
2023/10/11 01:02:54;;;;;;;;;;;;;;;;;;4986857;28;89137;-66
2023/10/11 01:05:20;;;;;;;;;;;;;;;;;;4990042;28;89484;-66
2023/10/11 01:07:46;;;;;;;;;;;;;;;;;;4985826;28;89073;-66
2023/10/11 01:10:11;;;;;;;;;;;;;;;;;;4987278;28;89961;-66
2023/10/11 01:12:39;;;;;;;;;;;;;;;;;;4987456;28;89165;-66
2023/10/11 01:15:04;;;;;;;;;;;;;;;;;;4987416;28;89923;-67
2023/10/11 01:17:32;;;;;;;;;;;;;;;;;;4986934;28;91146;-66
2023/10/11 01:19:59;;;;;;;;;;;;;;;;;;4987027;28;89920;-66
2023/10/11 01:22:26;;;;;;;;;;;;;;;;;;4987047;28;89053;-66
2023/10/11 01:24:53;;;;;;;;;;;;;;;;;;5019416;27;92303;-67
2023/10/11 01:27:18;;;;;;;;;;;;;;;;;;4989939;28;90879;-66
2023/10/11 01:29:44;;;;;;;;;;;;;;;;;;4994120;28;89887;-67
2023/10/11 01:32:10;;;;;;;;;;;;;;;;;;4997216;28;89797;-66
2023/10/11 01:34:35;;;;;;;;;;;;;;;;;;4987816;28;89116;-67
2023/10/11 01:37:00;;;;;;;;;;;;;;;;;;4987201;28;89482;-66
2023/10/11 01:39:25;;;;;;;;;;;;;;;;;;4987299;28;89334;-66
2023/10/11 01:41:54;;;;;;;;;;;;;;;;;;4986939;28;90355;-66
2023/10/11 01:44:22;;;;;;;;;;;;;;;;;;4986637;28;89496;-66
2023/10/11 01:46:47;;;;;;;;;;;;;;;;;;4986385;28;89184;-66
2023/10/11 01:49:14;;;;;;;;;;;;;;;;;;4989508;28;89380;-66
2023/10/11 01:51:40;;;;;;;;;;;;;;;;;;5001487;28;91841;-66
2023/10/11 01:54:09;;;;;;;;;;;;;;;;;;4986426;28;89578;-67
2023/10/11 01:56:34;;;;;;;;;;;;;;;;;;4986058;28;90077;-66
2023/10/11 01:59:01;;;;;;;;;;;;;;;;;;4985073;28;89473;-66
2023/10/11 02:01:26;;;;;;;;;;;;;;;;;;4990832;28;89786;-66
2023/10/11 02:03:56;;;;;;;;;;;;;;;;;;4986695;28;91288;-67
2023/10/11 02:06:22;;;;;;;;;;;;;;;;;;4973472;28;89766;-66
2023/10/11 02:08:47;;;;;;;;;;;;;;;;;;4986307;28;89789;-66
2023/10/11 02:11:14;;;;;;;;;;;;;;;;;;4988735;28;90664;-66
2023/10/11 02:13:40;;;;;;;;;;;;;;;;;;4986549;28;89025;-66
2023/10/11 02:16:11;;;;;;;;;;;;;;;;;;4986011;28;90118;-66
2023/10/11 02:18:37;;;;;;;;;;;;;;;;;;4986725;28;89792;-66
2023/10/11 02:21:08;;;;;;;;;;;;;;;;;;5011837;27;90590;-66
2023/10/11 02:23:40;;;;;;;;;;;;;;;;;;4966786;28;89992;-66
2023/10/11 02:26:14;;;;;;;;;;;;;;;;;;4984265;28;89475;-65
2023/10/11 02:28:40;;;;;;;;;;;;;;;;;;4985749;28;89139;-67
2023/10/11 02:31:08;;;;;;;;;;;;;;;;;;5003962;28;90679;-66
2023/10/11 02:33:33;;;;;;;;;;;;;;;;;;4988839;28;89393;-66
2023/10/11 02:36:08;;;;;;;;;;;;;;;;;;4986637;28;89469;-66
2023/10/11 02:38:38;;;;;;;;;;;;;;;;;;4986179;28;89203;-66
2023/10/11 02:41:03;;;;;;;;;;;;;;;;;;4986217;28;89763;-66
2023/10/11 02:43:33;;;;;;;;;;;;;;;;;;4986138;28;89664;-66
2023/10/11 02:45:59;;;;;;;;;;;;;;;;;;4986758;28;90290;-66
2023/10/11 02:48:24;;;;;;;;;;;;;;;;;;4986055;28;89111;-66
2023/10/11 02:50:54;;;;;;;;;;;;;;;;;;4986136;28;89515;-64
2023/10/11 02:53:22;;;;;;;;;;;;;;;;;;4986072;28;90193;-65
2023/10/11 02:55:59;;;;;;;;;;;;;;;;;;4989095;28;89549;-67
2023/10/11 02:58:25;;;;;;;;;;;;;;;;;;4985703;28;89829;-66
2023/10/11 03:00:56;;;;;;;;;;;;;;;;;;4985951;28;89552;-66
2023/10/11 03:03:21;;;;;;;;;;;;;;;;;;4985804;28;90620;-67
2023/10/11 03:05:48;;;;;;;;;;;;;;;;;;4984943;28;89264;-66
2023/10/11 03:08:13;;;;;;;;;;;;;;;;;;4985234;28;89936;-66
2023/10/11 03:10:43;;;;;;;;;;;;;;;;;;4984270;28;89719;-66
2023/10/11 03:13:10;;;;;;;;;;;;;;;;;;4985095;28;90406;-66
2023/10/11 03:15:38;;;;;;;;;;;;;;;;;;4987978;28;90186;-67
2023/10/11 03:18:06;;;;;;;;;;;;;;;;;;4985366;28;89916;-66
2023/10/11 03:20:36;;;;;;;;;;;;;;;;;;4985036;28;89548;-67
2023/10/11 03:23:04;;;;;;;;;;;;;;;;;;4984724;28;90732;-66
2023/10/11 03:25:31;;;;;;;;;;;;;;;;;;4985344;28;90583;-66
2023/10/11 03:27:57;;;;;;;;;;;;;;;;;;4985565;28;89165;-67
2023/10/11 03:30:24;;;;;;;;;;;;;;;;;;4997058;28;90644;-66
2023/10/11 03:32:49;;;;;;;;;;;;;;;;;;4993686;28;90681;-66
2023/10/11 03:35:18;;;;;;;;;;;;;;;;;;4985942;28;90214;-67
2023/10/11 03:37:57;;;;;;;;;;;;;;;;;;5003592;28;90561;-66
2023/10/11 03:40:27;;;;;;;;;;;;;;;;;;4986084;28;90824;-67
2023/10/11 03:42:59;;;;;;;;;;;;;;;;;;4985299;28;90572;-66
2023/10/11 03:45:27;;;;;;;;;;;;;;;;;;4985084;28;90184;-66
2023/10/11 03:47:53;;;;;;;;;;;;;;;;;;4984402;28;89710;-66
2023/10/11 03:50:25;;;;;;;;;;;;;;;;;;4984951;28;89563;-66
2023/10/11 03:52:50;;;;;;;;;;;;;;;;;;4984292;28;90580;-66
2023/10/11 03:55:16;;;;;;;;;;;;;;;;;;4984802;28;89595;-66
2023/10/11 03:57:41;;;;;;;;;;;;;;;;;;4984822;28;89558;-66
2023/10/11 04:02:47;;;;;;;;;;;;;;;;;;4984423;28;89650;-66
2023/10/11 04:05:12;;;;;;;;;;;;;;;;;;4995729;28;89658;-66
2023/10/11 04:07:40;;;;;;;;;;;;;;;;;;4984571;28;89783;-67
2023/10/11 04:10:09;;;;;;;;;;;;;;;;;;4985358;28;90959;-66
2023/10/11 04:12:38;;;;;;;;;;;;;;;;;;4984689;28;89874;-67
2023/10/11 04:15:18;;;;;;;;;;;;;;;;;;4985226;28;89643;-67
2023/10/11 04:17:48;;;;;;;;;;;;;;;;;;4984371;28;90496;-67
2023/10/11 04:23:14;;;;;;;;;;;;;;;;;;4968002;28;89459;-66
2023/10/11 04:25:39;;;;;;;;;;;;;;;;;;4975362;28;89612;-66
2023/10/11 04:28:05;;;;;;;;;;;;;;;;;;4988016;28;89374;-66
2023/10/11 04:30:41;;;;;;;;;;;;;;;;;;5000829;28;89600;-66
2023/10/11 04:33:12;;;;;;;;;;;;;;;;;;4993908;28;90029;-66
2023/10/11 04:35:37;;;;;;;;;;;;;;;;;;4982352;28;92926;-67
2023/10/11 04:38:04;;;;;;;;;;;;;;;;;;4984969;28;90835;-68
2023/10/11 04:40:40;;;;;;;;;;;;;;;;;;4986628;28;90155;-67
2023/10/11 04:43:24;;;;;;;;;;;;;;;;;;4986467;28;89149;-67
2023/10/11 04:45:59;;;;;;;;;;;;;;;;;;4989269;28;89515;-66
2023/10/11 04:48:36;;;;;;;;;;;;;;;;;;4982760;28;89771;-67
2023/10/11 04:53:54;;;;;;;;;;;;;;;;;;4985555;28;89430;-69
2023/10/11 04:59:13;;;;;;;;;;;;;;;;;;4986731;28;89946;-65
2023/10/11 05:04:16;;;;;;;;;;;;;;;;;;4981585;28;89016;-69
2023/10/11 05:06:42;;;;;;;;;;;;;;;;;;4985453;28;91425;-69
2023/10/11 05:11:50;;;;;;;;;;;;;;;;;;4986361;28;89423;-70
2023/10/11 05:14:37;;;;;;;;;;;;;;;;;;4986178;28;89021;-69
2023/10/11 05:19:44;;;;;;;;;;;;;;;;;;4978450;28;89724;-70
2023/10/11 05:22:16;;;;;;;;;;;;;;;;;;4986007;28;90178;-69
2023/10/11 05:25:12;;;;;;;;;;;;;;;;;;4985841;28;89458;-70
2023/10/11 05:33:15;;;;;;;;;;;;;;;;;;4984152;28;89531;-67
2023/10/11 05:36:09;;;;;;;;;;;;;;;;;;4988489;28;89437;-68
2023/10/11 05:52:08;;;;;;;;;;;;;;;;;;4985581;28;89197;-67
2023/10/11 05:54:36;;;;;;;;;;;;;;;;;;4988817;28;89393;-67
2023/10/11 05:57:05;;;;;;;;;;;;;;;;;;4984687;28;90138;-66
2023/10/11 05:59:37;;;;;;;;;;;;;;;;;;4985651;28;89553;-70
2023/10/11 06:02:07;;;;;;;;;;;;;;;;;;4981438;28;89479;-65
2023/10/11 06:04:39;;;;;;;;;;;;;;;;;;4982891;28;90504;-67
2023/10/11 06:07:05;;;;;;;;;;;;;;;;;;4981776;28;89341;-66
2023/10/11 06:09:30;;;;;;;;;;;;;;;;;;4999456;28;92668;-66
2023/10/11 06:11:57;;;;;;;;;;;;;;;;;;4982535;28;89939;-66
2023/10/11 06:14:23;;;;;;;;;;;;;;;;;;4985795;28;89207;-65
2023/10/11 06:16:49;;;;;;;;;;;;;;;;;;4987807;28;90886;-66
2023/10/11 06:19:18;;;;;;;;;;;;;;;;;;4985412;28;89362;-67
2023/10/11 06:21:57;;;;;;;;;;;;;;;;;;4985049;28;89486;-64
2023/10/11 06:24:25;;;;;;;;;;;;;;;;;;4981666;28;90250;-67
2023/10/11 06:26:55;;;;;;;;;;;;;;;;;;4982711;28;89232;-67
2023/10/11 06:29:24;;;;;;;;;;;;;;;;;;4986688;28;89154;-67
2023/10/11 06:31:50;;;;;;;;;;;;;;;;;;4983819;28;90196;-67
2023/10/11 06:34:17;;;;;;;;;;;;;;;;;;4985093;28;90091;-68
2023/10/11 06:36:48;;;;;;;;;;;;;;;;;;4984936;28;89851;-66
2023/10/11 06:39:33;;;;;;;;;;;;;;;;;;4987223;28;89994;-67
2023/10/11 06:41:59;;;;;;;;;;;;;;;;;;4981752;28;89754;-67
2023/10/11 06:44:24;;;;;;;;;;;;;;;;;;4983647;28;89318;-69
2023/10/11 06:46:50;;;;;;;;;;;;;;;;;;4983946;28;89020;-67
2023/10/11 06:49:16;;;;;;;;;;;;;;;;;;4983545;28;92419;-67
2023/10/11 06:51:41;;;;;;;;;;;;;;;;;;4982844;28;89373;-67
2023/10/11 06:54:06;;;;;;;;;;;;;;;;;;4985522;28;89381;-66
2023/10/11 06:56:32;;;;;;;;;;;;;;;;;;4985080;28;89538;-67
2023/10/11 06:59:00;;;;;;;;;;;;;;;;;;4985017;28;90302;-67
2023/10/11 07:01:30;;;;;;;;;;;;;;;;;;4987593;28;89611;-67
2023/10/11 07:03:57;;;;;;;;;;;;;;;;;;4983238;28;89843;-67
2023/10/11 07:06:22;;;;;;;;;;;;;;;;;;4984837;28;89713;-66
2023/10/11 07:08:50;;;;;;;;;;;;;;;;;;4984676;28;89481;-66
2023/10/11 07:11:41;;;;;;;;;;;;;;;;;;4982740;28;89255;-66
2023/10/11 07:14:14;;;;;;;;;;;;;;;;;;4976277;28;89576;-68
2023/10/11 07:16:41;;;;;;;;;;;;;;;;;;4983532;28;91000;-69
2023/10/11 07:19:09;;;;;;;;;;;;;;;;;;4983348;28;90289;-70
2023/10/11 07:21:48;;;;;;;;;;;;;;;;;;4982298;28;90025;-68
2023/10/11 07:24:19;;;;;;;;;;;;;;;;;;4982588;28;90111;-68
2023/10/11 07:29:12;;;;;;;;;;;;;;;;;;4985935;28;89603;-70
2023/10/11 07:31:38;;;;;;;;;;;;;;;;;;4983182;28;89251;-69
2023/10/11 07:34:10;;;;;;;;;;;;;;;;;;4982477;28;89266;-70
2023/10/11 07:36:37;;;;;;;;;;;;;;;;;;4984042;28;89507;-69
2023/10/11 07:39:14;;;;;;;;;;;;;;;;;;4984575;28;90386;-69
2023/10/11 07:41:42;;;;;;;;;;;;;;;;;;4983424;28;89300;-69
2023/10/11 07:44:07;;;;;;;;;;;;;;;;;;4988807;28;90975;-69
2023/10/11 07:46:33;;;;;;;;;;;;;;;;;;4984438;28;89184;-69
2023/10/11 07:49:04;;;;;;;;;;;;;;;;;;4983604;28;90072;-69
2023/10/11 07:51:30;;;;;;;;;;;;;;;;;;4983605;28;90155;-67
2023/10/11 07:53:56;;;;;;;;;;;;;;;;;;4984456;28;89522;-67
2023/10/11 07:56:21;;;;;;;;;;;;;;;;;;4983921;28;90807;-68
2023/10/11 07:58:47;;;;;;;;;;;;;;;;;;4987748;28;89973;-67
2023/10/11 08:01:24;;;;;;;;;;;;;;;;;;4987175;28;89951;-67
2023/10/11 08:03:51;;;;;;;;;;;;;;;;;;4987672;28;90786;-67
2023/10/11 08:06:23;;;;;;;;;;;;;;;;;;4990831;28;89804;-67
2023/10/11 08:08:48;;;;;;;;;;;;;;;;;;4987854;28;90792;-69
2023/10/11 08:11:20;;;;;;;;;;;;;;;;;;4987519;28;89316;-69
2023/10/11 08:13:48;;;;;;;;;;;;;;;;;;4987269;28;89313;-68
2023/10/11 08:16:17;;;;;;;;;;;;;;;;;;4982764;28;90830;-68
2023/10/11 08:18:43;;;;;;;;;;;;;;;;;;4987124;28;89456;-68
2023/10/11 08:21:10;;;;;;;;;;;;;;;;;;4987122;28;89621;-69
2023/10/11 08:23:36;;;;;;;;;;;;;;;;;;4987834;28;91168;-67
2023/10/11 08:26:05;;;;;;;;;;;;;;;;;;4986590;28;89153;-69
2023/10/11 08:28:34;;;;;;;;;;;;;;;;;;4981320;28;89486;-68
2023/10/11 08:31:00;;;;;;;;;;;;;;;;;;4994423;28;91345;-68
2023/10/11 08:33:25;;;;;;;;;;;;;;;;;;4990482;28;89938;-68
2023/10/11 08:35:53;;;;;;;;;;;;;;;;;;4992220;28;90107;-69
2023/10/11 08:38:18;;;;;;;;;;;;;;;;;;4986142;28;90224;-68
2023/10/11 08:40:47;;;;;;;;;;;;;;;;;;4987364;28;89617;-68
2023/10/11 08:43:15;;;;;;;;;;;;;;;;;;4986950;28;90602;-69
2023/10/11 08:45:48;;;;;;;;;;;;;;;;;;4982966;28;89258;-69
2023/10/11 08:48:13;;;;;;;;;;;;;;;;;;4986843;28;89532;-68
2023/10/11 08:50:41;;;;;;;;;;;;;;;;;;4988833;28;90690;-68
2023/10/11 08:53:07;;;;;;;;;;;;;;;;;;4986783;28;89344;-68
2023/10/11 08:55:35;;;;;;;;;;;;;;;;;;4986349;28;89661;-67
2023/10/11 08:58:12;;;;;;;;;;;;;;;;;;4986838;28;90110;-67
2023/10/11 09:00:37;;;;;;;;;;;;;;;;;;4985079;28;90397;-68
2023/10/11 09:03:17;;;;;;;;;;;;;;;;;;4986974;28;89366;-68
2023/10/11 09:05:43;;;;;;;;;;;;;;;;;;4984618;28;89834;-69
2023/10/11 09:08:27;;;;;;;;;;;;;;;;;;4985452;28;89839;-69
2023/10/11 09:10:53;;;;;;;;;;;;;;;;;;4985407;28;90352;-68
2023/10/11 09:13:28;;;;;;;;;;;;;;;;;;4987646;28;89693;-67
2023/10/11 09:15:54;;;;;;;;;;;;;;;;;;4984383;28;90714;-67
2023/10/11 09:18:20;;;;;;;;;;;;;;;;;;4985246;28;90306;-68
2023/10/11 09:23:39;;;;;;;;;;;;;;;;;;4985888;28;89827;-68
2023/10/11 09:26:05;;;;;;;;;;;;;;;;;;4984221;28;89306;-67
2023/10/11 09:28:33;;;;;;;;;;;;;;;;;;4986460;28;89111;-69
2023/10/11 09:31:09;;;;;;;;;;;;;;;;;;4988125;28;89581;-68
2023/10/11 09:33:35;;;;;;;;;;;;;;;;;;4989176;28;89458;-68
2023/10/11 09:36:06;;;;;;;;;;;;;;;;;;4986097;28;89507;-67
2023/10/11 09:38:38;;;;;;;;;;;;;;;;;;4985814;28;90251;-69
2023/10/11 09:41:07;;;;;;;;;;;;;;;;;;4985849;28;89070;-71
2023/10/11 09:43:36;;;;;;;;;;;;;;;;;;4981742;28;90038;-69
2023/10/11 09:46:03;;;;;;;;;;;;;;;;;;4986545;28;89710;-69
2023/10/11 09:48:29;;;;;;;;;;;;;;;;;;4985690;28;89405;-68
2023/10/11 09:50:57;;;;;;;;;;;;;;;;;;4984498;28;90951;-68
2023/10/11 09:53:25;;;;;;;;;;;;;;;;;;4985617;28;90108;-68
2023/10/11 09:55:57;;;;;;;;;;;;;;;;;;5003641;28;91476;-69
2023/10/11 09:58:31;;;;;;;;;;;;;;;;;;4985588;28;89544;-68
2023/10/11 10:01:07;;;;;;;;;;;;;;;;;;4985740;28;89410;-67
2023/10/11 10:03:38;;;;;;;;;;;;;;;;;;4982926;28;91338;-67
2023/10/11 10:06:21;;;;;;;;;;;;;;;;;;4985041;28;90237;-69
2023/10/11 10:12:11;;;;;;;;;;;;;;;;;;4985583;28;89129;-69
2023/10/11 10:14:36;;;;;;;;;;;;;;;;;;4985252;28;89120;-69
2023/10/11 10:17:10;;;;;;;;;;;;;;;;;;4985590;28;89601;-68
2023/10/11 10:19:39;;;;;;;;;;;;;;;;;;4986216;28;89686;-69
2023/10/11 10:22:09;;;;;;;;;;;;;;;;;;4984868;28;89510;-69
2023/10/11 10:24:35;;;;;;;;;;;;;;;;;;4985361;28;89632;-70
2023/10/11 10:27:20;;;;;;;;;;;;;;;;;;4985394;28;89724;-68
2023/10/11 10:29:59;;;;;;;;;;;;;;;;;;4984615;28;89457;-68
2023/10/11 10:32:25;;;;;;;;;;;;;;;;;;4985388;28;89475;-68
2023/10/11 10:35:11;;;;;;;;;;;;;;;;;;4984571;28;89122;-69
2023/10/11 10:37:45;;;;;;;;;;;;;;;;;;4981975;28;89687;-67
2023/10/11 10:40:26;;;;;;;;;;;;;;;;;;4984690;28;90729;-68
2023/10/11 10:43:22;;;;;;;;;;;;;;;;;;4984476;28;90504;-69
2023/10/11 10:45:48;;;;;;;;;;;;;;;;;;4983983;28;90811;-67
2023/10/11 10:48:14;;;;;;;;;;;;;;;;;;4985117;28;90335;-69
2023/10/11 10:50:49;;;;;;;;;;;;;;;;;;4985132;28;89035;-68
2023/10/11 10:53:17;;;;;;;;;;;;;;;;;;4984577;28;89735;-68
2023/10/11 10:55:43;;;;;;;;;;;;;;;;;;4985665;28;90219;-67
2023/10/11 10:58:15;;;;;;;;;;;;;;;;;;4984859;28;89765;-67
2023/10/11 11:00:43;;;;;;;;;;;;;;;;;;4983742;28;92865;-68
2023/10/11 11:03:23;;;;;;;;;;;;;;;;;;4999574;28;90576;-67
2023/10/11 11:05:55;;;;;;;;;;;;;;;;;;4986241;28;89731;-69
2023/10/11 11:08:24;;;;;;;;;;;;;;;;;;4984299;28;91778;-68
2023/10/11 11:10:57;;;;;;;;;;;;;;;;;;4983772;28;89593;-68
2023/10/11 11:13:22;;;;;;;;;;;;;;;;;;4981979;28;90665;-67
2023/10/11 11:15:55;;;;;;;;;;;;;;;;;;4985149;28;89754;-67
2023/10/11 11:18:32;;;;;;;;;;;;;;;;;;4985113;28;89672;-69
2023/10/11 11:21:17;;;;;;;;;;;;;;;;;;4985608;28;89634;-69
2023/10/11 11:23:44;;;;;;;;;;;;;;;;;;4984434;28;90283;-67
2023/10/11 11:26:15;;;;;;;;;;;;;;;;;;4984599;28;89401;-68
2023/10/11 11:28:41;;;;;;;;;;;;;;;;;;4987293;28;91265;-68
2023/10/11 11:31:11;;;;;;;;;;;;;;;;;;4988257;28;89898;-69
2023/10/11 11:33:47;;;;;;;;;;;;;;;;;;4988803;28;90605;-67
2023/10/11 11:36:21;;;;;;;;;;;;;;;;;;4988734;28;90512;-68
2023/10/11 11:38:47;;;;;;;;;;;;;;;;;;4989433;28;90623;-67
2023/10/11 11:41:18;;;;;;;;;;;;;;;;;;4989715;28;90094;-68
2023/10/11 11:43:46;;;;;;;;;;;;;;;;;;4989086;28;89440;-68
2023/10/11 11:46:15;;;;;;;;;;;;;;;;;;4988844;28;89771;-68
2023/10/11 11:48:41;;;;;;;;;;;;;;;;;;4991568;28;89883;-68
2023/10/11 11:51:16;;;;;;;;;;;;;;;;;;4991939;28;89956;-68
2023/10/11 11:53:43;;;;;;;;;;;;;;;;;;4989106;28;89632;-68
2023/10/11 11:56:10;;;;;;;;;;;;;;;;;;4986944;28;92063;-68
2023/10/11 11:58:36;;;;;;;;;;;;;;;;;;4988855;28;89389;-67
2023/10/11 12:01:15;;;;;;;;;;;;;;;;;;4989321;28;89550;-69
2023/10/11 12:03:41;;;;;;;;;;;;;;;;;;4988752;28;90220;-69
2023/10/11 12:06:21;;;;;;;;;;;;;;;;;;4989674;28;89536;-68
2023/10/11 12:08:46;;;;;;;;;;;;;;;;;;4989072;28;89960;-69
2023/10/11 12:11:15;;;;;;;;;;;;;;;;;;4992213;28;89953;-69
2023/10/11 12:13:40;;;;;;;;;;;;;;;;;;4988498;28;91126;-70
2023/10/11 12:16:09;;;;;;;;;;;;;;;;;;4988656;28;89657;-69
2023/10/11 12:18:34;;;;;;;;;;;;;;;;;;4988598;28;89725;-68
2023/10/11 12:21:10;;;;;;;;;;;;;;;;;;4988335;28;90304;-70
2023/10/11 12:23:36;;;;;;;;;;;;;;;;;;4988171;28;90236;-69
2023/10/11 12:26:04;;;;;;;;;;;;;;;;;;4996193;28;90075;-69
2023/10/11 12:28:29;;;;;;;;;;;;;;;;;;4995391;28;92441;-70
2023/10/11 12:30:54;;;;;;;;;;;;;;;;;;4993873;28;90100;-69
2023/10/11 12:33:20;;;;;;;;;;;;;;;;;;4991809;28;89418;-69
2023/10/11 12:35:45;;;;;;;;;;;;;;;;;;4988039;28;89660;-68
2023/10/11 12:38:12;;;;;;;;;;;;;;;;;;4987118;28;89069;-68
2023/10/11 12:40:38;;;;;;;;;;;;;;;;;;4987994;28;89708;-68
2023/10/11 12:43:07;;;;;;;;;;;;;;;;;;4986908;28;89229;-68
2023/10/11 12:45:32;;;;;;;;;;;;;;;;;;4987764;28;89429;-70
2023/10/11 12:47:57;;;;;;;;;;;;;;;;;;4988013;28;90037;-68
2023/10/11 12:50:23;;;;;;;;;;;;;;;;;;4987351;28;89911;-68
2023/10/11 12:52:52;;;;;;;;;;;;;;;;;;4987164;28;89326;-70
2023/10/11 12:55:20;;;;;;;;;;;;;;;;;;4990040;28;90735;-68
2023/10/11 12:57:45;;;;;;;;;;;;;;;;;;4986733;28;89088;-69
2023/10/11 13:00:31;;;;;;;;;;;;;;;;;;4986839;28;89717;-70
2023/10/11 13:02:59;;;;;;;;;;;;;;;;;;4986120;28;90351;-69
2023/10/11 13:05:30;;;;;;;;;;;;;;;;;;4986771;28;89484;-70
2023/10/11 13:07:55;;;;;;;;;;;;;;;;;;4987838;28;89588;-69
2023/10/11 13:10:23;;;;;;;;;;;;;;;;;;4987334;28;91777;-70
2023/10/11 13:12:50;;;;;;;;;;;;;;;;;;4987022;28;89588;-70
2023/10/11 13:15:16;;;;;;;;;;;;;;;;;;4986574;28;89586;-70
2023/10/11 13:17:41;;;;;;;;;;;;;;;;;;4990044;28;90705;-70
2023/10/11 13:20:17;;;;;;;;;;;;;;;;;;4987678;28;90730;-68
2023/10/11 13:22:43;;;;;;;;;;;;;;;;;;4986705;28;89203;-69
2023/10/11 13:25:10;;;;;;;;;;;;;;;;;;4986885;28;89209;-68
2023/10/11 13:27:35;;;;;;;;;;;;;;;;;;4987063;28;90099;-68
2023/10/11 13:30:02;;;;;;;;;;;;;;;;;;4990311;28;90462;-69
2023/10/11 13:32:28;;;;;;;;;;;;;;;;;;4987363;28;89292;-70
2023/10/11 13:34:54;;;;;;;;;;;;;;;;;;4987114;28;89654;-70
2023/10/11 13:37:20;;;;;;;;;;;;;;;;;;4987211;28;89580;-71
2023/10/11 13:39:46;;;;;;;;;;;;;;;;;;4989730;28;89686;-70
2023/10/11 13:42:14;;;;;;;;;;;;;;;;;;4985521;28;91746;-70
2023/10/11 13:44:39;;;;;;;;;;;;;;;;;;4983003;28;89066;-69
2023/10/11 13:47:05;;;;;;;;;;;;;;;;;;4986465;28;90721;-70
2023/10/11 13:49:36;;;;;;;;;;;;;;;;;;4987382;28;89885;-67
2023/10/11 13:52:03;;;;;;;;;;;;;;;;;;4986422;28;90184;-68
2023/10/11 13:54:32;;;;;;;;;;;;;;;;;;4986727;28;89608;-68
2023/10/11 13:57:10;;;;;;;;;;;;;;;;;;4976795;28;91266;-68
2023/10/11 13:59:45;;;;;;;;;;;;;;;;;;4980749;28;89694;-70
2023/10/11 14:09:58;;;;;;;;;;;;;;;;;;4986280;28;89283;-69
2023/10/11 14:12:25;;;;;;;;;;;;;;;;;;4986054;28;90283;-68
2023/10/11 14:14:50;;;;;;;;;;;;;;;;;;4985687;28;90766;-68
2023/10/11 14:17:15;;;;;;;;;;;;;;;;;;4985129;28;89221;-68
2023/10/11 14:19:41;;;;;;;;;;;;;;;;;;4986173;28;89736;-71
2023/10/11 14:22:06;;;;;;;;;;;;;;;;;;4993601;28;90719;-69
2023/10/11 14:24:31;;;;;;;;;;;;;;;;;;4985888;28;89417;-68
2023/10/11 14:26:57;;;;;;;;;;;;;;;;;;4985373;28;90255;-68
2023/10/11 14:29:22;;;;;;;;;;;;;;;;;;4988981;28;90904;-70
2023/10/11 14:31:47;;;;;;;;;;;;;;;;;;4986214;28;90192;-68
2023/10/11 14:34:12;;;;;;;;;;;;;;;;;;4986312;28;90077;-69
2023/10/11 14:36:40;;;;;;;;;;;;;;;;;;4985610;28;89773;-69
2023/10/11 14:39:17;;;;;;;;;;;;;;;;;;4986339;28;89355;-71
2023/10/11 14:41:42;;;;;;;;;;;;;;;;;;4985266;28;90852;-69
2023/10/11 14:44:08;;;;;;;;;;;;;;;;;;4988161;28;89447;-71
2023/10/11 14:46:35;;;;;;;;;;;;;;;;;;4985524;28;90049;-68
2023/10/11 14:49:00;;;;;;;;;;;;;;;;;;4981566;28;90423;-68
2023/10/11 14:51:25;;;;;;;;;;;;;;;;;;4982847;28;89425;-73
2023/10/11 14:53:51;;;;;;;;;;;;;;;;;;4981676;28;90162;-70
2023/10/11 14:56:16;;;;;;;;;;;;;;;;;;4984321;28;89721;-71
2023/10/11 14:58:43;;;;;;;;;;;;;;;;;;4986091;28;89061;-71
2023/10/11 15:01:08;;;;;;;;;;;;;;;;;;4985702;28;89520;-71
2023/10/11 15:03:37;;;;;;;;;;;;;;;;;;4983819;28;89232;-72
2023/10/11 15:06:08;;;;;;;;;;;;;;;;;;4974070;28;90741;-72
2023/10/11 15:08:37;;;;;;;;;;;;;;;;;;4984834;28;90838;-70
2023/10/11 15:11:04;;;;;;;;;;;;;;;;;;4985032;28;90321;-73
2023/10/11 15:13:31;;;;;;;;;;;;;;;;;;4981449;28;90317;-72
2023/10/11 15:15:56;;;;;;;;;;;;;;;;;;4984093;28;90579;-70
2023/10/11 15:18:21;;;;;;;;;;;;;;;;;;4983618;28;89747;-71
2023/10/11 15:20:47;;;;;;;;;;;;;;;;;;4985255;28;90670;-70
2023/10/11 15:23:12;;;;;;;;;;;;;;;;;;4983753;28;90239;-70
2023/10/11 15:25:37;;;;;;;;;;;;;;;;;;4982575;28;89042;-70
2023/10/11 15:28:05;;;;;;;;;;;;;;;;;;4988399;28;90768;-69
2023/10/11 15:30:31;;;;;;;;;;;;;;;;;;4990869;28;92388;-70
2023/10/11 15:32:56;;;;;;;;;;;;;;;;;;4983123;28;89615;-70
2023/10/11 15:35:21;;;;;;;;;;;;;;;;;;4981606;28;90080;-70
2023/10/11 15:37:47;;;;;;;;;;;;;;;;;;4995464;28;90486;-70
2023/10/11 15:40:13;;;;;;;;;;;;;;;;;;4984580;28;90420;-71
2023/10/11 15:42:40;;;;;;;;;;;;;;;;;;4982631;28;90107;-71
2023/10/11 15:45:05;;;;;;;;;;;;;;;;;;4982396;28;89552;-71
2023/10/11 15:47:35;;;;;;;;;;;;;;;;;;4983967;28;89657;-70
2023/10/11 15:50:00;;;;;;;;;;;;;;;;;;4983399;28;90164;-70
2023/10/11 15:52:25;;;;;;;;;;;;;;;;;;4983095;28;89387;-70
2023/10/11 15:54:51;;;;;;;;;;;;;;;;;;4985969;28;89380;-70
2023/10/11 15:57:17;;;;;;;;;;;;;;;;;;4982692;28;89960;-70
2023/10/11 15:59:42;;;;;;;;;;;;;;;;;;4983309;28;89973;-70
2023/10/11 16:02:07;;;;;;;;;;;;;;;;;;4982740;28;89100;-72
2023/10/11 16:04:32;;;;;;;;;;;;;;;;;;4984295;28;89477;-70
2023/10/11 16:06:58;;;;;;;;;;;;;;;;;;4982299;28;89750;-69
2023/10/11 16:09:23;;;;;;;;;;;;;;;;;;4986493;28;89414;-70
2023/10/11 16:11:48;;;;;;;;;;;;;;;;;;4982970;28;90190;-70
2023/10/11 16:14:16;;;;;;;;;;;;;;;;;;4983044;28;90251;-71
2023/10/11 16:16:43;;;;;;;;;;;;;;;;;;4983832;28;90808;-70
2023/10/11 16:19:08;;;;;;;;;;;;;;;;;;4985370;28;89612;-70
2023/10/11 16:21:39;;;;;;;;;;;;;;;;;;4987665;28;89716;-70
2023/10/11 16:24:07;;;;;;;;;;;;;;;;;;4986645;28;90170;-70
2023/10/11 16:26:32;;;;;;;;;;;;;;;;;;4987298;28;89679;-70
2023/10/11 16:29:04;;;;;;;;;;;;;;;;;;4987186;28;89279;-69
2023/10/11 16:31:33;;;;;;;;;;;;;;;;;;4989915;28;91178;-70
2023/10/11 16:33:58;;;;;;;;;;;;;;;;;;4991434;28;89169;-69
2023/10/11 16:36:24;;;;;;;;;;;;;;;;;;4962876;28;93847;-69
2023/10/11 16:38:50;;;;;;;;;;;;;;;;;;4985117;28;90718;-70
2023/10/11 16:41:17;;;;;;;;;;;;;;;;;;4985597;28;89598;-70
2023/10/11 16:43:43;;;;;;;;;;;;;;;;;;4986202;28;89707;-70
2023/10/11 16:46:09;;;;;;;;;;;;;;;;;;4988877;28;89676;-70
2023/10/11 16:48:35;;;;;;;;;;;;;;;;;;4986305;28;89200;-70
2023/10/11 16:51:05;;;;;;;;;;;;;;;;;;4991185;28;89993;-70
2023/10/11 16:53:32;;;;;;;;;;;;;;;;;;4983685;28;90817;-70
2023/10/11 16:55:57;;;;;;;;;;;;;;;;;;4984588;28;89116;-69
2023/10/11 16:58:22;;;;;;;;;;;;;;;;;;4991339;28;89846;-69
2023/10/11 17:00:48;;;;;;;;;;;;;;;;;;4987885;28;90738;-69
2023/10/11 17:03:14;;;;;;;;;;;;;;;;;;4964597;28;93139;-70
2023/10/11 17:05:39;;;;;;;;;;;;;;;;;;5001168;28;90779;-68
2023/10/11 17:08:05;;;;;;;;;;;;;;;;;;4987061;28;90598;-72
2023/10/11 17:10:33;;;;;;;;;;;;;;;;;;4987160;28;89826;-69
2023/10/11 17:12:59;;;;;;;;;;;;;;;;;;4986365;28;89468;-69
2023/10/11 17:15:24;;;;;;;;;;;;;;;;;;4990448;28;91696;-68
2023/10/11 17:17:50;;;;;;;;;;;;;;;;;;4989251;28;90299;-68
2023/10/11 17:20:15;;;;;;;;;;;;;;;;;;4986936;28;92691;-68
2023/10/11 17:22:46;;;;;;;;;;;;;;;;;;4986484;28;89520;-68
2023/10/11 17:25:12;;;;;;;;;;;;;;;;;;4986149;28;90755;-68
2023/10/11 17:27:37;;;;;;;;;;;;;;;;;;4986314;28;89171;-68
2023/10/11 17:30:05;;;;;;;;;;;;;;;;;;4985728;28;89690;-68
2023/10/11 17:32:31;;;;;;;;;;;;;;;;;;4985985;28;89661;-67
2023/10/11 17:34:56;;;;;;;;;;;;;;;;;;4986098;28;89462;-66
2023/10/11 17:37:21;;;;;;;;;;;;;;;;;;4990061;28;89124;-67
2023/10/11 17:39:46;;;;;;;;;;;;;;;;;;4985688;28;90422;-68
2023/10/11 17:42:12;;;;;;;;;;;;;;;;;;4983297;28;89336;-69
2023/10/11 17:44:39;;;;;;;;;;;;;;;;;;4982665;28;90940;-68
2023/10/11 17:47:05;;;;;;;;;;;;;;;;;;4984352;28;90278;-68
2023/10/11 17:49:30;;;;;;;;;;;;;;;;;;4985818;28;89756;-68